createdAt,value
2018-12-21T00:01:05.732Z,12.10
2018-12-21T00:03:47.364Z,12.00
2018-12-21T00:06:28.603Z,11.90
2018-12-21T00:09:10.300Z,11.90
2018-12-21T00:11:52.296Z,11.80
2018-12-21T00:14:33.985Z,11.70
2018-12-21T00:17:15.880Z,11.70
2018-12-21T00:19:57.399Z,11.50
2018-12-21T00:22:39.577Z,11.50
2018-12-21T00:25:21.365Z,11.40
2018-12-21T00:28:02.549Z,11.30
2018-12-21T00:30:43.004Z,11.30
2018-12-21T00:33:29.925Z,11.20
2018-12-21T00:36:16.424Z,11.20
2018-12-21T00:39:03.337Z,11.20
2018-12-21T00:41:43.597Z,11.20
2018-12-21T00:44:29.585Z,11.20
2018-12-21T00:47:14.132Z,11.20
2018-12-21T00:49:55.733Z,11.30
2018-12-21T00:52:37.425Z,11.30
2018-12-21T00:55:18.908Z,11.30
2018-12-21T00:58:00.603Z,11.40
2018-12-21T01:00:42.123Z,11.40
2018-12-21T01:03:23.986Z,11.50
2018-12-21T01:06:05.613Z,11.50
2018-12-21T01:08:47.468Z,11.50
2018-12-21T01:11:28.985Z,11.50
2018-12-21T01:14:10.547Z,11.60
2018-12-21T01:16:52.239Z,11.60
2018-12-21T01:19:34.474Z,11.60
2018-12-21T01:22:15.512Z,11.70
2018-12-21T01:24:56.901Z,11.70
2018-12-21T01:27:38.632Z,11.70
2018-12-21T01:30:20.894Z,11.70
2018-12-21T01:33:01.868Z,11.70
2018-12-21T01:35:42.843Z,11.60
2018-12-21T01:38:24.229Z,11.70
2018-12-21T01:41:06.021Z,11.60
2018-12-21T01:43:47.509Z,11.60
2018-12-21T01:46:29.040Z,11.70
2018-12-21T01:49:11.297Z,11.60
2018-12-21T01:51:52.524Z,11.60
2018-12-21T01:54:34.917Z,11.60
2018-12-21T01:57:16.885Z,11.50
2018-12-21T01:59:58.272Z,11.50
2018-12-21T02:02:39.686Z,11.40
2018-12-21T02:05:22.165Z,11.40
2018-12-21T02:08:03.344Z,11.30
2018-12-21T02:10:45.341Z,11.30
2018-12-21T02:13:27.158Z,11.40
2018-12-21T02:16:09.180Z,11.30
2018-12-21T02:18:50.683Z,11.30
2018-12-21T02:21:31.901Z,11.20
2018-12-21T02:24:13.288Z,11.20
2018-12-21T02:26:56.105Z,11.10
2018-12-21T02:29:37.690Z,11.00
2018-12-21T02:32:19.484Z,10.90
2018-12-21T02:35:00.969Z,10.90
2018-12-21T02:37:43.148Z,10.80
2018-12-21T02:40:24.454Z,10.80
2018-12-21T02:43:06.148Z,10.70
2018-12-21T02:45:47.735Z,10.70
2018-12-21T02:48:30.179Z,10.70
2018-12-21T02:51:11.937Z,10.60
2018-12-21T02:53:54.042Z,10.60
2018-12-21T02:56:35.325Z,10.60
2018-12-21T02:59:16.909Z,10.50
2018-12-21T03:01:59.623Z,10.40
2018-12-21T03:04:41.006Z,10.40
2018-12-21T03:07:22.391Z,10.40
2018-12-21T03:10:04.750Z,10.40
2018-12-21T03:12:46.798Z,10.40
2018-12-21T03:15:28.404Z,10.40
2018-12-21T03:18:10.188Z,10.40
2018-12-21T03:20:51.907Z,10.50
2018-12-21T03:23:33.433Z,10.50
2018-12-21T03:26:14.948Z,10.60
2018-12-21T03:28:56.638Z,10.60
2018-12-21T03:31:38.230Z,10.70
2018-12-21T03:34:19.918Z,10.70
2018-12-21T03:37:01.818Z,10.80
2018-12-21T03:39:43.534Z,11.00
2018-12-21T03:42:25.014Z,11.00
2018-12-21T03:45:06.095Z,11.10
2018-12-21T03:47:47.963Z,11.20
2018-12-21T03:50:29.654Z,11.30
2018-12-21T03:53:11.141Z,11.40
2018-12-21T03:55:53.359Z,11.50
2018-12-21T03:58:34.422Z,11.50
2018-12-21T04:01:16.344Z,11.50
2018-12-21T04:03:57.524Z,11.50
2018-12-21T04:06:39.497Z,11.60
2018-12-21T04:09:20.926Z,11.60
2018-12-21T04:12:02.679Z,11.50
2018-12-21T04:14:45.285Z,11.40
2018-12-21T04:17:26.772Z,11.30
2018-12-21T04:20:08.466Z,11.20
2018-12-21T04:22:50.797Z,11.10
2018-12-21T04:25:31.945Z,11.00
2018-12-21T04:28:13.841Z,11.00
2018-12-21T04:30:55.048Z,11.00
2018-12-21T04:33:36.712Z,10.90
2018-12-21T04:36:18.099Z,10.90
2018-12-21T04:38:59.612Z,10.90
2018-12-21T04:41:41.381Z,10.90
2018-12-21T04:44:23.271Z,10.90
2018-12-21T04:47:04.759Z,11.00
2018-12-21T04:49:46.478Z,10.90
2018-12-21T04:52:29.205Z,10.90
2018-12-21T04:55:10.989Z,11.00
2018-12-21T04:57:52.869Z,10.90
2018-12-21T05:00:34.345Z,10.80
2018-12-21T05:03:15.828Z,10.90
2018-12-21T05:05:57.529Z,10.80
2018-12-21T05:08:39.208Z,10.90
2018-12-21T05:11:20.832Z,10.90
2018-12-21T05:14:02.898Z,10.90
2018-12-21T05:16:45.103Z,10.90
2018-12-21T05:19:27.103Z,11.00
2018-12-21T05:22:08.487Z,11.00
2018-12-21T05:24:49.973Z,10.90
2018-12-21T05:27:31.661Z,10.90
2018-12-21T05:30:13.408Z,10.90
2018-12-21T05:32:54.841Z,10.90
2018-12-21T05:35:36.634Z,10.90
2018-12-21T05:38:18.608Z,10.80
2018-12-21T05:41:00.525Z,10.80
2018-12-21T05:43:42.409Z,10.70
2018-12-21T05:46:24.321Z,10.70
2018-12-21T05:49:06.113Z,10.80
2018-12-21T05:51:47.598Z,10.80
2018-12-21T05:54:30.110Z,10.90
2018-12-21T05:57:12.314Z,10.90
2018-12-21T05:59:53.592Z,11.00
2018-12-21T06:02:35.285Z,11.00
2018-12-21T06:05:16.772Z,11.10
2018-12-21T06:07:58.359Z,11.10
2018-12-21T06:10:40.152Z,11.10
2018-12-21T06:13:21.871Z,11.10
2018-12-21T06:16:03.373Z,11.10
2018-12-21T06:18:45.329Z,11.10
2018-12-21T06:21:26.512Z,11.20
2018-12-21T06:24:08.124Z,11.20
2018-12-21T06:26:49.795Z,11.30
2018-12-21T06:29:31.381Z,11.20
2018-12-21T06:32:13.067Z,11.30
2018-12-21T06:34:54.659Z,11.20
2018-12-21T06:37:36.355Z,11.20
2018-12-21T06:40:17.983Z,11.20
2018-12-21T06:42:59.730Z,11.20
2018-12-21T06:45:41.318Z,11.20
2018-12-21T06:48:23.009Z,11.20
2018-12-21T06:51:04.497Z,11.20
2018-12-21T06:53:46.084Z,11.30
2018-12-21T06:56:27.712Z,11.30
2018-12-21T06:59:09.063Z,11.30
2018-12-21T07:01:50.895Z,11.30
2018-12-21T07:04:32.349Z,11.30
2018-12-21T07:07:13.925Z,11.30
2018-12-21T07:09:55.653Z,11.30
2018-12-21T07:12:37.513Z,11.30
2018-12-21T07:15:19.345Z,11.30
2018-12-21T07:18:00.796Z,11.30
2018-12-21T07:20:42.484Z,11.30
2018-12-21T07:23:27.343Z,11.40
2018-12-21T07:26:07.606Z,11.40
2018-12-21T07:28:49.516Z,11.40
2018-12-21T07:31:31.105Z,11.40
2018-12-21T07:34:13.016Z,11.50
2018-12-21T07:36:54.372Z,11.50
2018-12-21T07:39:35.754Z,11.70
2018-12-21T07:42:17.959Z,12.30
2018-12-21T07:44:59.038Z,13.10
2018-12-21T07:47:42.059Z,13.90
2018-12-21T07:50:24.162Z,14.60
2018-12-21T07:53:05.132Z,15.20
2018-12-21T07:55:48.399Z,15.80
2018-12-21T07:58:29.745Z,16.50
2018-12-21T08:01:11.333Z,17.00
2018-12-21T08:03:53.024Z,17.60
2018-12-21T08:06:34.614Z,18.10
2018-12-21T08:09:16.237Z,18.40
2018-12-21T08:11:57.688Z,18.70
2018-12-21T08:14:39.379Z,19.00
2018-12-21T08:17:20.864Z,19.30
2018-12-21T08:20:02.785Z,19.60
2018-12-21T08:22:44.685Z,20.20
2018-12-21T08:25:26.031Z,20.90
2018-12-21T08:28:07.527Z,21.70
2018-12-21T08:30:49.545Z,22.10
2018-12-21T08:33:33.607Z,22.80
2018-12-21T08:36:15.194Z,23.00
2018-12-21T08:38:56.854Z,23.40
2018-12-21T08:41:38.341Z,23.70
2018-12-21T08:44:20.259Z,24.00
2018-12-21T08:47:01.106Z,24.30
2018-12-21T08:49:42.900Z,24.50
2018-12-21T08:52:24.062Z,24.50
2018-12-21T08:55:05.694Z,24.80
2018-12-21T08:57:46.522Z,24.70
2018-12-21T09:00:28.104Z,24.80
2018-12-21T09:03:10.234Z,25.40
2018-12-21T09:05:51.820Z,25.70
2018-12-21T09:08:33.939Z,26.00
2018-12-21T09:11:15.056Z,27.00
2018-12-21T09:13:56.779Z,27.60
2018-12-21T09:16:38.340Z,27.60
2018-12-21T09:19:19.834Z,27.60
2018-12-21T09:22:01.401Z,27.60
2018-12-21T09:24:42.953Z,28.10
2018-12-21T09:27:24.694Z,27.90
2018-12-21T09:30:06.308Z,28.80
2018-12-21T09:32:48.117Z,28.60
2018-12-21T09:35:30.426Z,29.40
2018-12-21T09:38:12.814Z,29.20
2018-12-21T09:40:55.645Z,29.80
2018-12-21T09:43:36.823Z,30.10
2018-12-21T09:46:18.516Z,30.40
2018-12-21T09:49:00.002Z,30.50
2018-12-21T09:51:41.623Z,30.50
2018-12-21T09:54:23.383Z,31.00
2018-12-21T09:57:04.973Z,30.90
2018-12-21T09:59:46.867Z,30.80
2018-12-21T10:02:35.777Z,30.90
2018-12-21T10:05:14.431Z,31.30
2018-12-21T10:07:55.832Z,31.60
2018-12-21T10:10:37.421Z,31.90
2018-12-21T10:13:19.253Z,32.10
2018-12-21T10:16:00.804Z,32.50
2018-12-21T10:18:42.598Z,32.90
2018-12-21T10:21:24.597Z,33.10
2018-12-21T10:24:05.879Z,33.60
2018-12-21T10:26:47.405Z,33.90
2018-12-21T10:29:29.053Z,34.10
2018-12-21T10:32:10.542Z,35.30
2018-12-21T10:34:52.131Z,35.00
2018-12-21T10:37:33.615Z,35.10
2018-12-21T10:40:15.130Z,34.90
2018-12-21T10:42:56.796Z,34.20
2018-12-21T10:45:41.764Z,33.60
2018-12-21T10:48:22.747Z,33.40
2018-12-21T10:51:03.710Z,32.90
2018-12-21T10:53:46.665Z,33.20
2018-12-21T10:56:28.046Z,33.90
2018-12-21T10:59:09.736Z,34.10
2018-12-21T11:01:51.466Z,33.60
2018-12-21T11:04:32.748Z,33.40
2018-12-21T11:07:14.063Z,32.70
2018-12-21T11:09:56.064Z,31.90
2018-12-21T11:12:37.237Z,31.10
2018-12-21T11:15:18.865Z,29.40
2018-12-21T11:18:00.416Z,28.90
2018-12-21T11:20:42.108Z,28.00
2018-12-21T11:23:23.801Z,27.20
2018-12-21T11:26:05.590Z,26.60
2018-12-21T11:28:47.282Z,25.40
2018-12-21T11:31:29.008Z,24.80
2018-12-21T11:34:10.817Z,24.50
2018-12-21T11:36:52.356Z,24.20
2018-12-21T11:39:33.949Z,23.20
2018-12-21T11:42:15.434Z,22.50
2018-12-21T11:44:57.062Z,22.30
2018-12-21T11:47:38.710Z,22.10
2018-12-21T11:50:20.402Z,22.00
2018-12-21T11:53:01.992Z,22.00
2018-12-21T11:55:43.480Z,22.00
2018-12-21T11:58:25.069Z,21.80
2018-12-21T12:01:06.553Z,21.70
2018-12-21T12:03:47.966Z,21.60
2018-12-21T12:06:29.627Z,21.60
2018-12-21T12:09:11.114Z,21.80
2018-12-21T12:11:52.642Z,21.80
2018-12-21T12:14:34.396Z,22.10
2018-12-21T12:17:16.085Z,22.40
2018-12-21T12:19:57.776Z,22.60
2018-12-21T12:22:39.467Z,23.10
2018-12-21T12:25:20.956Z,23.90
2018-12-21T12:28:02.643Z,24.50
2018-12-21T12:30:44.849Z,24.60
2018-12-21T12:33:26.028Z,24.90
2018-12-21T12:36:07.512Z,25.60
2018-12-21T12:38:49.203Z,26.20
2018-12-21T12:41:30.794Z,26.40
2018-12-21T12:44:13.048Z,26.90
2018-12-21T12:46:53.974Z,27.30
2018-12-21T12:49:35.662Z,27.50
2018-12-21T12:52:17.250Z,27.10
2018-12-21T12:57:42.600Z,27.30
2018-12-21T13:00:24.277Z,27.20
2018-12-21T13:03:06.584Z,26.80
2018-12-21T13:05:47.756Z,25.80
2018-12-21T13:08:29.344Z,25.30
2018-12-21T13:11:10.962Z,25.00
2018-12-21T13:13:52.623Z,24.20
2018-12-21T13:16:34.826Z,23.70
2018-12-21T13:19:15.803Z,22.90
2018-12-21T13:21:57.598Z,22.40
2018-12-21T13:24:39.186Z,21.50
2018-12-21T13:27:20.916Z,21.00
2018-12-21T13:30:02.463Z,20.40
2018-12-21T13:32:44.255Z,19.80
2018-12-21T13:35:26.193Z,19.00
2018-12-21T13:38:07.638Z,18.80
2018-12-21T13:40:48.817Z,18.70
2018-12-21T13:43:30.509Z,18.50
2018-12-21T13:46:12.305Z,18.50
2018-12-21T13:48:54.097Z,18.40
2018-12-21T13:51:36.068Z,18.40
2018-12-21T13:54:17.379Z,18.20
2018-12-21T13:56:59.398Z,18.30
2018-12-21T13:59:40.491Z,18.30
2018-12-21T14:02:22.450Z,18.20
2018-12-21T14:05:03.784Z,18.20
2018-12-21T14:07:45.625Z,18.20
2018-12-21T14:10:27.012Z,18.20
2018-12-21T14:13:08.702Z,18.30
2018-12-21T14:15:50.393Z,18.40
2018-12-21T14:18:31.986Z,18.50
2018-12-21T14:21:13.677Z,18.50
2018-12-21T14:23:55.697Z,18.50
2018-12-21T14:26:36.547Z,18.50
2018-12-21T14:29:18.362Z,18.50
2018-12-21T14:32:00.173Z,18.50
2018-12-21T14:34:42.770Z,18.40
2018-12-21T14:37:24.845Z,18.20
2018-12-21T14:40:06.869Z,18.20
2018-12-21T14:42:48.738Z,18.20
2018-12-21T14:45:42.921Z,18.20
2018-12-21T14:48:25.230Z,18.20
2018-12-21T14:51:06.715Z,18.10
2018-12-21T14:53:48.410Z,18.00
2018-12-21T14:56:30.202Z,18.00
2018-12-21T14:59:11.798Z,17.90
2018-12-21T15:01:53.404Z,17.90
2018-12-21T15:04:34.939Z,17.90
2018-12-21T15:07:17.174Z,17.80
2018-12-21T15:09:58.245Z,17.80
2018-12-21T15:12:39.936Z,17.70
2018-12-21T15:15:21.732Z,17.70
2018-12-21T15:18:03.627Z,17.60
2018-12-21T15:20:45.112Z,17.60
2018-12-21T15:23:26.721Z,17.50
2018-12-21T15:26:08.318Z,17.40
2018-12-21T15:28:49.981Z,17.30
2018-12-21T15:31:31.569Z,17.20
2018-12-21T15:34:13.258Z,17.20
2018-12-21T15:36:54.961Z,17.20
2018-12-21T15:39:36.744Z,17.20
2018-12-21T15:42:18.470Z,17.10
2018-12-21T15:45:00.179Z,17.00
2018-12-21T15:47:42.093Z,16.90
2018-12-21T15:50:23.424Z,16.90
2018-12-21T15:53:05.611Z,16.80
2018-12-21T15:55:54.569Z,16.70
2018-12-21T15:58:30.249Z,16.60
2018-12-21T16:01:11.940Z,16.50
2018-12-21T16:03:54.627Z,16.40
2018-12-21T16:06:36.525Z,16.40
2018-12-21T16:09:18.112Z,16.30
2018-12-21T16:11:59.803Z,16.20
2018-12-21T16:14:41.477Z,16.10
2018-12-21T16:17:23.007Z,16.00
2018-12-21T16:20:04.671Z,15.90
2018-12-21T16:22:46.469Z,15.90
2018-12-21T16:25:28.651Z,15.80
2018-12-21T16:28:09.643Z,15.70
2018-12-21T16:30:51.232Z,15.60
2018-12-21T16:33:33.026Z,15.60
2018-12-21T16:36:14.614Z,15.60
2018-12-21T16:38:56.306Z,15.60
2018-12-21T16:41:37.794Z,15.50
2018-12-21T16:44:19.521Z,15.50
2018-12-21T16:47:01.275Z,15.40
2018-12-21T16:49:42.966Z,15.40
2018-12-21T16:52:24.457Z,15.40
2018-12-21T16:55:06.168Z,15.30
2018-12-21T16:57:47.938Z,15.20
2018-12-21T17:00:29.791Z,15.20
2018-12-21T17:03:15.557Z,15.10
2018-12-21T17:05:55.879Z,15.10
2018-12-21T17:08:37.672Z,15.10
2018-12-21T17:11:19.263Z,15.00
2018-12-21T17:14:02.040Z,15.00
2018-12-21T17:16:43.632Z,15.00
2018-12-21T17:19:25.154Z,15.00
2018-12-21T17:22:07.189Z,14.90
2018-12-21T17:24:48.473Z,14.90
2018-12-21T17:27:30.435Z,14.90
2018-12-21T17:30:11.713Z,14.90
2018-12-21T17:32:53.303Z,14.90
2018-12-21T17:35:34.686Z,14.90
2018-12-21T17:38:16.485Z,14.90
2018-12-21T17:40:58.338Z,14.80
2018-12-21T17:43:39.758Z,14.80
2018-12-21T17:46:21.353Z,14.80
2018-12-21T17:49:02.941Z,14.80
2018-12-21T17:51:45.401Z,14.80
2018-12-21T17:54:28.094Z,14.80
2018-12-21T17:57:10.161Z,14.70
2018-12-21T17:59:51.647Z,14.70
2018-12-21T18:02:33.470Z,14.70
2018-12-21T18:05:14.827Z,14.60
2018-12-21T18:07:57.262Z,14.60
2018-12-21T18:10:39.026Z,14.60
2018-12-21T18:13:21.577Z,14.60
2018-12-21T18:16:05.464Z,14.50
2018-12-21T18:18:47.105Z,14.50
2018-12-21T18:21:28.798Z,14.50
2018-12-21T18:24:10.351Z,14.40
2018-12-21T18:26:51.732Z,14.40
2018-12-21T18:29:33.555Z,14.40
2018-12-21T18:32:14.911Z,14.40
2018-12-21T18:34:58.964Z,14.40
2018-12-21T18:37:40.547Z,14.30
2018-12-21T18:40:23.054Z,14.30
2018-12-21T18:43:04.749Z,14.30
2018-12-21T18:45:46.437Z,14.30
2018-12-21T18:48:27.954Z,14.30
2018-12-21T18:51:09.717Z,14.30
2018-12-21T18:53:51.485Z,14.20
2018-12-21T18:56:33.100Z,14.20
2018-12-21T18:59:14.486Z,14.20
2018-12-21T19:01:55.897Z,14.10
2018-12-21T19:04:37.559Z,14.10
2018-12-21T19:07:19.252Z,14.20
2018-12-21T19:10:00.843Z,14.10
2018-12-21T19:12:42.463Z,14.10
2018-12-21T19:15:24.016Z,14.10
2018-12-21T19:18:06.217Z,14.10
2018-12-21T19:20:47.398Z,14.00
2018-12-21T19:23:29.426Z,14.00
2018-12-21T19:26:10.576Z,14.00
2018-12-21T19:28:52.374Z,14.00
2018-12-21T19:31:34.405Z,14.00
2018-12-21T19:34:15.649Z,14.00
2018-12-21T19:36:57.238Z,14.00
2018-12-21T19:39:39.032Z,13.90
2018-12-21T19:42:20.415Z,13.90
2018-12-21T19:45:01.901Z,13.90
2018-12-21T19:47:43.495Z,13.90
2018-12-21T19:50:25.281Z,13.90
2018-12-21T19:53:07.282Z,13.90
2018-12-21T19:55:48.972Z,13.90
2018-12-21T19:58:31.280Z,13.90
2018-12-21T20:01:13.278Z,13.90
2018-12-21T20:03:54.866Z,13.90
2018-12-21T20:06:36.350Z,13.90
2018-12-21T20:09:17.940Z,13.90
2018-12-21T20:11:59.453Z,13.90
2018-12-21T20:14:41.219Z,13.90
2018-12-21T20:17:22.912Z,13.80
2018-12-21T20:20:04.805Z,13.90
2018-12-21T20:22:46.631Z,13.80
2018-12-21T20:25:29.353Z,13.90
2018-12-21T20:28:11.349Z,13.80
2018-12-21T20:30:53.004Z,13.80
2018-12-21T20:33:34.735Z,13.80
2018-12-21T20:36:16.693Z,13.80
2018-12-21T20:38:58.179Z,13.80
2018-12-21T20:41:40.134Z,13.80
2018-12-21T20:44:21.464Z,13.80
2018-12-21T20:47:03.751Z,13.80
2018-12-21T20:49:44.741Z,13.80
2018-12-21T20:52:26.353Z,13.80
2018-12-21T20:55:08.226Z,13.80
2018-12-21T20:57:49.711Z,13.90
2018-12-21T21:00:31.229Z,13.90
2018-12-21T21:03:12.784Z,13.90
2018-12-21T21:05:54.471Z,13.90
2018-12-21T21:08:35.936Z,13.90
2018-12-21T21:11:24.317Z,13.80
2018-12-21T21:14:01.086Z,13.80
2018-12-21T21:16:42.638Z,13.70
2018-12-21T21:19:24.364Z,13.60
2018-12-21T21:22:05.956Z,13.60
2018-12-21T21:24:47.475Z,13.60
2018-12-21T21:27:30.495Z,13.50
2018-12-21T21:30:13.209Z,13.60
2018-12-21T21:32:54.460Z,13.70
2018-12-21T21:35:37.174Z,13.70
2018-12-21T21:38:18.968Z,13.60
2018-12-21T21:41:00.353Z,13.50
2018-12-21T21:43:42.378Z,13.50
2018-12-21T21:46:23.528Z,13.40
2018-12-21T21:49:05.047Z,13.30
2018-12-21T21:51:46.606Z,13.20
2018-12-21T21:54:28.401Z,13.10
2018-12-21T21:57:11.669Z,13.10
2018-12-21T21:59:53.621Z,13.00
2018-12-21T22:02:35.008Z,12.90
2018-12-21T22:05:16.697Z,12.90
2018-12-21T22:07:58.901Z,12.80
2018-12-21T22:10:40.008Z,12.80
2018-12-21T22:13:21.466Z,12.80
2018-12-21T22:16:03.259Z,12.80
2018-12-21T22:18:46.760Z,12.70
2018-12-21T22:21:29.506Z,12.70
2018-12-21T22:24:11.914Z,12.70
2018-12-21T22:26:54.447Z,12.70
2018-12-21T22:29:36.642Z,12.60
2018-12-21T22:32:18.973Z,12.60
2018-12-21T22:35:01.038Z,12.60
2018-12-21T22:37:42.976Z,12.60
2018-12-21T22:40:25.950Z,12.50
2018-12-21T22:43:07.649Z,12.50
2018-12-21T22:45:49.855Z,12.40
2018-12-21T22:48:33.473Z,12.40
2018-12-21T22:51:15.278Z,12.40
2018-12-21T22:53:58.297Z,12.40
2018-12-21T22:56:41.019Z,12.40
2018-12-21T22:59:23.335Z,12.40
2018-12-21T23:02:06.034Z,12.40
2018-12-21T23:04:48.647Z,12.50
2018-12-21T23:07:30.985Z,12.50
2018-12-21T23:10:12.028Z,12.50
2018-12-21T23:12:53.718Z,12.50
2018-12-21T23:15:35.103Z,12.60
2018-12-21T23:18:16.013Z,12.50
2018-12-21T23:20:57.666Z,12.50
2018-12-21T23:23:39.355Z,12.40
2018-12-21T23:26:21.048Z,12.50
2018-12-21T23:29:03.460Z,12.50
2018-12-21T23:31:46.319Z,12.40
2018-12-21T23:34:28.169Z,12.50
2018-12-21T23:37:10.010Z,12.40
2018-12-21T23:39:51.038Z,12.50
2018-12-21T23:42:32.733Z,12.40
2018-12-21T23:45:15.680Z,12.40
2018-12-21T23:47:56.829Z,12.30
2018-12-21T23:50:38.726Z,12.30
2018-12-21T23:53:20.417Z,12.30
2018-12-21T23:56:02.340Z,12.30
2018-12-21T23:58:43.492Z,12.30
